sensor_id;sensor_type;location;lat;lon;timestamp;P1;durP1;ratioP1;P2;durP2;ratioP2
75320;SDS011;63920;52.130;5.584;2022-12-18T00:01:34;70.70;;;30.63;;
75320;SDS011;63920;52.130;5.584;2022-12-18T00:04:02;73.78;;;32.90;;
75320;SDS011;63920;52.130;5.584;2022-12-18T00:06:31;72.57;;;33.05;;
75320;SDS011;63920;52.130;5.584;2022-12-18T00:09:00;70.13;;;30.95;;
75320;SDS011;63920;52.130;5.584;2022-12-18T00:11:28;68.90;;;30.15;;
75320;SDS011;63920;52.130;5.584;2022-12-18T00:13:55;72.95;;;31.17;;
75320;SDS011;63920;52.130;5.584;2022-12-18T00:16:23;65.68;;;30.17;;
75320;SDS011;63920;52.130;5.584;2022-12-18T00:18:50;69.45;;;32.03;;
75320;SDS011;63920;52.130;5.584;2022-12-18T00:21:18;70.13;;;31.55;;
75320;SDS011;63920;52.130;5.584;2022-12-18T00:23:45;78.97;;;33.13;;
75320;SDS011;63920;52.130;5.584;2022-12-18T00:26:16;74.55;;;32.70;;
75320;SDS011;63920;52.130;5.584;2022-12-18T00:28:54;88.57;;;34.83;;
75320;SDS011;63920;52.130;5.584;2022-12-18T00:31:23;72.05;;;32.22;;
75320;SDS011;63920;52.130;5.584;2022-12-18T00:33:49;79.15;;;34.40;;
75320;SDS011;63920;52.130;5.584;2022-12-18T00:36:17;81.95;;;32.70;;
75320;SDS011;63920;52.130;5.584;2022-12-18T00:38:47;80.50;;;34.63;;
75320;SDS011;63920;52.130;5.584;2022-12-18T00:41:14;80.32;;;34.95;;
75320;SDS011;63920;52.130;5.584;2022-12-18T00:43:59;81.80;;;34.35;;
75320;SDS011;63920;52.130;5.584;2022-12-18T00:46:25;82.10;;;36.67;;
75320;SDS011;63920;52.130;5.584;2022-12-18T00:48:51;72.00;;;33.47;;
75320;SDS011;63920;52.130;5.584;2022-12-18T00:51:16;75.68;;;34.60;;
75320;SDS011;63920;52.130;5.584;2022-12-18T00:53:42;80.60;;;34.22;;
75320;SDS011;63920;52.130;5.584;2022-12-18T00:56:07;77.03;;;33.45;;
75320;SDS011;63920;52.130;5.584;2022-12-18T00:58:33;77.43;;;32.17;;
75320;SDS011;63920;52.130;5.584;2022-12-18T01:01:03;69.82;;;31.20;;
75320;SDS011;63920;52.130;5.584;2022-12-18T01:03:29;77.18;;;32.50;;
75320;SDS011;63920;52.130;5.584;2022-12-18T01:05:55;78.72;;;33.53;;
75320;SDS011;63920;52.130;5.584;2022-12-18T01:08:21;79.90;;;33.47;;
75320;SDS011;63920;52.130;5.584;2022-12-18T01:10:46;81.70;;;33.78;;
75320;SDS011;63920;52.130;5.584;2022-12-18T01:13:12;74.90;;;33.08;;
75320;SDS011;63920;52.130;5.584;2022-12-18T01:15:38;69.43;;;30.35;;
75320;SDS011;63920;52.130;5.584;2022-12-18T01:18:04;74.45;;;31.90;;
75320;SDS011;63920;52.130;5.584;2022-12-18T01:20:31;75.38;;;30.77;;
75320;SDS011;63920;52.130;5.584;2022-12-18T01:22:57;73.18;;;32.10;;
75320;SDS011;63920;52.130;5.584;2022-12-18T01:25:22;73.20;;;31.13;;
75320;SDS011;63920;52.130;5.584;2022-12-18T01:27:48;72.90;;;30.45;;
75320;SDS011;63920;52.130;5.584;2022-12-18T01:30:14;69.90;;;31.27;;
75320;SDS011;63920;52.130;5.584;2022-12-18T01:32:40;69.60;;;29.58;;
75320;SDS011;63920;52.130;5.584;2022-12-18T01:35:05;67.20;;;30.40;;
75320;SDS011;63920;52.130;5.584;2022-12-18T01:37:31;62.00;;;30.20;;
75320;SDS011;63920;52.130;5.584;2022-12-18T01:39:57;66.00;;;30.90;;
75320;SDS011;63920;52.130;5.584;2022-12-18T01:42:23;68.80;;;31.15;;
75320;SDS011;63920;52.130;5.584;2022-12-18T01:47:48;61.42;;;27.50;;
75320;SDS011;63920;52.130;5.584;2022-12-18T01:50:18;60.58;;;28.25;;
75320;SDS011;63920;52.130;5.584;2022-12-18T01:52:54;68.38;;;30.92;;
75320;SDS011;63920;52.130;5.584;2022-12-18T01:55:28;66.15;;;30.45;;
75320;SDS011;63920;52.130;5.584;2022-12-18T01:57:57;61.65;;;29.58;;
75320;SDS011;63920;52.130;5.584;2022-12-18T02:00:24;66.70;;;29.50;;
75320;SDS011;63920;52.130;5.584;2022-12-18T02:02:51;64.30;;;29.85;;
75320;SDS011;63920;52.130;5.584;2022-12-18T02:05:18;59.65;;;28.40;;
75320;SDS011;63920;52.130;5.584;2022-12-18T02:18:47;61.78;;;28.00;;
75320;SDS011;63920;52.130;5.584;2022-12-18T02:26:33;60.70;;;27.42;;
75320;SDS011;63920;52.130;5.584;2022-12-18T02:29:13;52.17;;;26.05;;
75320;SDS011;63920;52.130;5.584;2022-12-18T02:31:48;61.95;;;27.27;;
75320;SDS011;63920;52.130;5.584;2022-12-18T02:34:28;58.85;;;26.33;;
75320;SDS011;63920;52.130;5.584;2022-12-18T02:36:58;60.60;;;27.73;;
75320;SDS011;63920;52.130;5.584;2022-12-18T02:39:27;61.35;;;27.02;;
75320;SDS011;63920;52.130;5.584;2022-12-18T02:41:56;54.50;;;26.77;;
75320;SDS011;63920;52.130;5.584;2022-12-18T02:44:22;58.47;;;26.52;;
75320;SDS011;63920;52.130;5.584;2022-12-18T02:46:51;56.83;;;26.38;;
75320;SDS011;63920;52.130;5.584;2022-12-18T02:57:28;48.45;;;25.58;;
75320;SDS011;63920;52.130;5.584;2022-12-18T03:02:57;64.45;;;28.33;;
75320;SDS011;63920;52.130;5.584;2022-12-18T03:05:31;53.67;;;25.50;;
75320;SDS011;63920;52.130;5.584;2022-12-18T03:10:34;53.80;;;26.35;;
75320;SDS011;63920;52.130;5.584;2022-12-18T03:13:05;50.67;;;24.92;;
75320;SDS011;63920;52.130;5.584;2022-12-18T03:15:44;51.42;;;24.27;;
75320;SDS011;63920;52.130;5.584;2022-12-18T03:18:13;49.40;;;24.20;;
75320;SDS011;63920;52.130;5.584;2022-12-18T03:20:43;50.47;;;25.40;;
75320;SDS011;63920;52.130;5.584;2022-12-18T03:23:13;45.78;;;22.98;;
75320;SDS011;63920;52.130;5.584;2022-12-18T03:25:44;43.00;;;22.45;;
75320;SDS011;63920;52.130;5.584;2022-12-18T03:28:13;49.75;;;23.45;;
75320;SDS011;63920;52.130;5.584;2022-12-18T03:30:44;44.00;;;22.25;;
75320;SDS011;63920;52.130;5.584;2022-12-18T03:33:13;43.85;;;21.65;;
75320;SDS011;63920;52.130;5.584;2022-12-18T03:35:44;47.10;;;21.45;;
75320;SDS011;63920;52.130;5.584;2022-12-18T03:38:11;41.15;;;20.67;;
75320;SDS011;63920;52.130;5.584;2022-12-18T03:40:45;46.10;;;21.77;;
75320;SDS011;63920;52.130;5.584;2022-12-18T03:46:24;45.38;;;22.08;;
75320;SDS011;63920;52.130;5.584;2022-12-18T03:49:01;45.40;;;21.02;;
75320;SDS011;63920;52.130;5.584;2022-12-18T03:51:42;40.33;;;19.17;;
75320;SDS011;63920;52.130;5.584;2022-12-18T03:54:15;43.95;;;22.23;;
75320;SDS011;63920;52.130;5.584;2022-12-18T03:56:44;34.20;;;18.40;;
75320;SDS011;63920;52.130;5.584;2022-12-18T03:59:13;37.58;;;19.73;;
75320;SDS011;63920;52.130;5.584;2022-12-18T04:01:42;39.03;;;20.20;;
75320;SDS011;63920;52.130;5.584;2022-12-18T04:04:12;35.20;;;19.17;;
75320;SDS011;63920;52.130;5.584;2022-12-18T04:06:39;39.85;;;20.15;;
75320;SDS011;63920;52.130;5.584;2022-12-18T04:09:06;42.55;;;19.13;;
75320;SDS011;63920;52.130;5.584;2022-12-18T04:11:32;36.60;;;19.60;;
75320;SDS011;63920;52.130;5.584;2022-12-18T04:13:58;43.22;;;20.77;;
75320;SDS011;63920;52.130;5.584;2022-12-18T04:16:24;40.90;;;19.83;;
75320;SDS011;63920;52.130;5.584;2022-12-18T04:18:51;41.78;;;20.80;;
75320;SDS011;63920;52.130;5.584;2022-12-18T04:21:17;38.88;;;20.90;;
75320;SDS011;63920;52.130;5.584;2022-12-18T04:23:42;39.15;;;21.40;;
75320;SDS011;63920;52.130;5.584;2022-12-18T04:26:08;39.83;;;19.98;;
75320;SDS011;63920;52.130;5.584;2022-12-18T04:28:33;36.67;;;20.25;;
75320;SDS011;63920;52.130;5.584;2022-12-18T04:30:59;39.78;;;20.13;;
75320;SDS011;63920;52.130;5.584;2022-12-18T04:33:24;39.72;;;19.45;;
75320;SDS011;63920;52.130;5.584;2022-12-18T04:35:50;32.80;;;18.85;;
75320;SDS011;63920;52.130;5.584;2022-12-18T04:38:15;36.70;;;19.05;;
75320;SDS011;63920;52.130;5.584;2022-12-18T04:40:41;34.10;;;19.30;;
75320;SDS011;63920;52.130;5.584;2022-12-18T04:43:07;37.83;;;19.95;;
75320;SDS011;63920;52.130;5.584;2022-12-18T04:45:32;35.28;;;18.75;;
75320;SDS011;63920;52.130;5.584;2022-12-18T04:47:59;33.70;;;18.33;;
75320;SDS011;63920;52.130;5.584;2022-12-18T04:50:25;37.70;;;18.25;;
75320;SDS011;63920;52.130;5.584;2022-12-18T04:52:50;32.47;;;18.27;;
75320;SDS011;63920;52.130;5.584;2022-12-18T04:55:16;35.58;;;17.23;;
75320;SDS011;63920;52.130;5.584;2022-12-18T04:57:41;34.65;;;17.60;;
75320;SDS011;63920;52.130;5.584;2022-12-18T05:00:07;32.90;;;18.23;;
75320;SDS011;63920;52.130;5.584;2022-12-18T05:02:33;33.83;;;17.58;;
75320;SDS011;63920;52.130;5.584;2022-12-18T05:04:59;32.50;;;17.48;;
75320;SDS011;63920;52.130;5.584;2022-12-18T05:07:24;30.27;;;16.55;;
75320;SDS011;63920;52.130;5.584;2022-12-18T05:09:50;28.60;;;16.02;;
75320;SDS011;63920;52.130;5.584;2022-12-18T05:12:16;27.30;;;15.75;;
75320;SDS011;63920;52.130;5.584;2022-12-18T05:14:41;35.30;;;17.88;;
75320;SDS011;63920;52.130;5.584;2022-12-18T05:17:07;30.02;;;15.65;;
75320;SDS011;63920;52.130;5.584;2022-12-18T05:19:32;28.27;;;14.95;;
75320;SDS011;63920;52.130;5.584;2022-12-18T05:21:58;27.23;;;15.93;;
75320;SDS011;63920;52.130;5.584;2022-12-18T05:24:23;29.73;;;15.82;;
75320;SDS011;63920;52.130;5.584;2022-12-18T05:26:49;25.27;;;14.88;;
75320;SDS011;63920;52.130;5.584;2022-12-18T05:29:14;31.13;;;15.15;;
75320;SDS011;63920;52.130;5.584;2022-12-18T05:31:40;30.40;;;16.90;;
75320;SDS011;63920;52.130;5.584;2022-12-18T05:34:05;25.27;;;14.80;;
75320;SDS011;63920;52.130;5.584;2022-12-18T05:36:31;27.77;;;14.73;;
75320;SDS011;63920;52.130;5.584;2022-12-18T05:38:57;28.75;;;15.68;;
75320;SDS011;63920;52.130;5.584;2022-12-18T05:41:22;23.88;;;13.57;;
75320;SDS011;63920;52.130;5.584;2022-12-18T05:43:48;27.13;;;14.65;;
75320;SDS011;63920;52.130;5.584;2022-12-18T05:46:15;26.25;;;14.18;;
75320;SDS011;63920;52.130;5.584;2022-12-18T05:48:43;30.70;;;14.48;;
75320;SDS011;63920;52.130;5.584;2022-12-18T05:51:10;27.67;;;14.43;;
75320;SDS011;63920;52.130;5.584;2022-12-18T05:53:37;23.50;;;13.93;;
75320;SDS011;63920;52.130;5.584;2022-12-18T05:56:04;23.05;;;13.85;;
75320;SDS011;63920;52.130;5.584;2022-12-18T05:58:31;26.38;;;14.50;;
75320;SDS011;63920;52.130;5.584;2022-12-18T06:01:05;26.65;;;13.75;;
75320;SDS011;63920;52.130;5.584;2022-12-18T06:03:33;30.13;;;14.68;;
75320;SDS011;63920;52.130;5.584;2022-12-18T06:05:59;24.70;;;13.40;;
75320;SDS011;63920;52.130;5.584;2022-12-18T06:08:24;25.83;;;15.07;;
75320;SDS011;63920;52.130;5.584;2022-12-18T06:10:50;23.30;;;14.10;;
75320;SDS011;63920;52.130;5.584;2022-12-18T06:13:18;23.58;;;13.15;;
75320;SDS011;63920;52.130;5.584;2022-12-18T06:15:44;25.48;;;13.77;;
75320;SDS011;63920;52.130;5.584;2022-12-18T06:18:10;25.35;;;13.63;;
75320;SDS011;63920;52.130;5.584;2022-12-18T06:20:35;27.45;;;14.10;;
75320;SDS011;63920;52.130;5.584;2022-12-18T06:23:02;28.27;;;13.93;;
75320;SDS011;63920;52.130;5.584;2022-12-18T06:25:27;22.15;;;12.88;;
75320;SDS011;63920;52.130;5.584;2022-12-18T06:27:53;23.13;;;13.27;;
75320;SDS011;63920;52.130;5.584;2022-12-18T06:30:19;23.50;;;13.40;;
75320;SDS011;63920;52.130;5.584;2022-12-18T06:32:45;26.83;;;13.25;;
75320;SDS011;63920;52.130;5.584;2022-12-18T06:35:10;19.88;;;12.80;;
75320;SDS011;63920;52.130;5.584;2022-12-18T06:37:36;21.98;;;13.40;;
75320;SDS011;63920;52.130;5.584;2022-12-18T06:40:02;23.25;;;13.55;;
75320;SDS011;63920;52.130;5.584;2022-12-18T06:42:28;23.02;;;13.32;;
75320;SDS011;63920;52.130;5.584;2022-12-18T06:44:54;22.60;;;13.43;;
75320;SDS011;63920;52.130;5.584;2022-12-18T06:47:19;20.65;;;12.45;;
75320;SDS011;63920;52.130;5.584;2022-12-18T06:49:45;22.90;;;12.90;;
75320;SDS011;63920;52.130;5.584;2022-12-18T06:52:10;21.83;;;13.20;;
75320;SDS011;63920;52.130;5.584;2022-12-18T06:54:36;19.63;;;12.10;;
75320;SDS011;63920;52.130;5.584;2022-12-18T06:57:02;21.50;;;13.13;;
75320;SDS011;63920;52.130;5.584;2022-12-18T06:59:27;20.90;;;13.10;;
75320;SDS011;63920;52.130;5.584;2022-12-18T07:01:53;19.23;;;12.38;;
75320;SDS011;63920;52.130;5.584;2022-12-18T07:04:18;25.63;;;14.75;;
75320;SDS011;63920;52.130;5.584;2022-12-18T07:06:44;23.02;;;13.75;;
75320;SDS011;63920;52.130;5.584;2022-12-18T07:09:09;23.60;;;14.00;;
75320;SDS011;63920;52.130;5.584;2022-12-18T07:11:35;20.80;;;12.80;;
75320;SDS011;63920;52.130;5.584;2022-12-18T07:14:01;20.02;;;12.52;;
75320;SDS011;63920;52.130;5.584;2022-12-18T07:16:26;23.60;;;13.05;;
75320;SDS011;63920;52.130;5.584;2022-12-18T07:18:53;22.20;;;12.57;;
75320;SDS011;63920;52.130;5.584;2022-12-18T07:21:20;21.70;;;13.20;;
75320;SDS011;63920;52.130;5.584;2022-12-18T07:23:46;24.10;;;13.50;;
75320;SDS011;63920;52.130;5.584;2022-12-18T07:26:13;22.52;;;13.50;;
75320;SDS011;63920;52.130;5.584;2022-12-18T07:28:41;24.30;;;14.30;;
75320;SDS011;63920;52.130;5.584;2022-12-18T07:31:07;23.23;;;14.70;;
75320;SDS011;63920;52.130;5.584;2022-12-18T07:33:34;25.23;;;13.93;;
75320;SDS011;63920;52.130;5.584;2022-12-18T07:36:04;24.38;;;13.70;;
75320;SDS011;63920;52.130;5.584;2022-12-18T07:38:32;26.38;;;14.48;;
75320;SDS011;63920;52.130;5.584;2022-12-18T07:41:02;24.58;;;13.10;;
75320;SDS011;63920;52.130;5.584;2022-12-18T07:43:31;26.02;;;13.57;;
75320;SDS011;63920;52.130;5.584;2022-12-18T07:45:58;21.20;;;13.35;;
75320;SDS011;63920;52.130;5.584;2022-12-18T07:48:24;23.90;;;14.35;;
75320;SDS011;63920;52.130;5.584;2022-12-18T07:50:50;25.88;;;14.20;;
75320;SDS011;63920;52.130;5.584;2022-12-18T07:53:15;25.10;;;14.13;;
75320;SDS011;63920;52.130;5.584;2022-12-18T07:55:41;21.38;;;13.90;;
75320;SDS011;63920;52.130;5.584;2022-12-18T07:58:07;23.23;;;14.57;;
75320;SDS011;63920;52.130;5.584;2022-12-18T08:00:33;24.77;;;13.90;;
75320;SDS011;63920;52.130;5.584;2022-12-18T08:02:59;22.23;;;14.32;;
75320;SDS011;63920;52.130;5.584;2022-12-18T08:05:25;22.45;;;14.07;;
75320;SDS011;63920;52.130;5.584;2022-12-18T08:07:51;21.33;;;13.93;;
75320;SDS011;63920;52.130;5.584;2022-12-18T08:10:17;21.58;;;13.25;;
75320;SDS011;63920;52.130;5.584;2022-12-18T08:12:42;27.25;;;15.10;;
75320;SDS011;63920;52.130;5.584;2022-12-18T08:15:08;23.50;;;13.88;;
75320;SDS011;63920;52.130;5.584;2022-12-18T08:17:34;24.27;;;13.60;;
75320;SDS011;63920;52.130;5.584;2022-12-18T08:19:59;24.00;;;13.80;;
75320;SDS011;63920;52.130;5.584;2022-12-18T08:22:25;21.77;;;13.82;;
75320;SDS011;63920;52.130;5.584;2022-12-18T08:24:51;25.52;;;14.38;;
75320;SDS011;63920;52.130;5.584;2022-12-18T08:27:16;20.30;;;12.32;;
75320;SDS011;63920;52.130;5.584;2022-12-18T08:29:42;21.13;;;13.35;;
75320;SDS011;63920;52.130;5.584;2022-12-18T08:32:07;19.52;;;12.80;;
75320;SDS011;63920;52.130;5.584;2022-12-18T08:34:33;17.33;;;11.48;;
75320;SDS011;63920;52.130;5.584;2022-12-18T08:36:59;23.90;;;12.80;;
75320;SDS011;63920;52.130;5.584;2022-12-18T08:39:24;22.48;;;12.40;;
75320;SDS011;63920;52.130;5.584;2022-12-18T08:41:50;18.80;;;11.70;;
75320;SDS011;63920;52.130;5.584;2022-12-18T08:44:34;18.15;;;10.93;;
75320;SDS011;63920;52.130;5.584;2022-12-18T08:47:02;17.70;;;12.18;;
75320;SDS011;63920;52.130;5.584;2022-12-18T08:49:29;20.23;;;12.18;;
75320;SDS011;63920;52.130;5.584;2022-12-18T08:51:55;18.73;;;12.13;;
75320;SDS011;63920;52.130;5.584;2022-12-18T08:54:22;22.10;;;12.23;;
75320;SDS011;63920;52.130;5.584;2022-12-18T08:56:48;18.42;;;11.45;;
75320;SDS011;63920;52.130;5.584;2022-12-18T08:59:16;18.25;;;12.02;;
75320;SDS011;63920;52.130;5.584;2022-12-18T09:01:42;20.50;;;12.80;;
75320;SDS011;63920;52.130;5.584;2022-12-18T09:04:09;21.20;;;12.45;;
75320;SDS011;63920;52.130;5.584;2022-12-18T09:06:35;22.08;;;12.82;;
75320;SDS011;63920;52.130;5.584;2022-12-18T09:09:01;19.38;;;11.90;;
75320;SDS011;63920;52.130;5.584;2022-12-18T09:11:28;20.40;;;11.77;;
75320;SDS011;63920;52.130;5.584;2022-12-18T09:13:54;18.92;;;12.18;;
75320;SDS011;63920;52.130;5.584;2022-12-18T09:16:20;17.58;;;10.27;;
75320;SDS011;63920;52.130;5.584;2022-12-18T09:18:47;17.27;;;11.18;;
75320;SDS011;63920;52.130;5.584;2022-12-18T09:21:15;18.90;;;11.88;;
75320;SDS011;63920;52.130;5.584;2022-12-18T09:23:42;18.13;;;11.40;;
75320;SDS011;63920;52.130;5.584;2022-12-18T09:26:08;18.08;;;10.70;;
75320;SDS011;63920;52.130;5.584;2022-12-18T09:28:33;20.30;;;11.23;;
75320;SDS011;63920;52.130;5.584;2022-12-18T09:31:02;19.13;;;11.98;;
75320;SDS011;63920;52.130;5.584;2022-12-18T09:33:29;20.83;;;11.63;;
75320;SDS011;63920;52.130;5.584;2022-12-18T09:35:55;17.85;;;11.05;;
75320;SDS011;63920;52.130;5.584;2022-12-18T09:38:20;18.10;;;10.90;;
75320;SDS011;63920;52.130;5.584;2022-12-18T09:40:49;18.30;;;11.27;;
75320;SDS011;63920;52.130;5.584;2022-12-18T09:43:19;19.00;;;10.18;;
75320;SDS011;63920;52.130;5.584;2022-12-18T09:45:51;16.40;;;10.40;;
75320;SDS011;63920;52.130;5.584;2022-12-18T09:48:23;15.93;;;10.18;;
75320;SDS011;63920;52.130;5.584;2022-12-18T09:50:53;15.73;;;10.13;;
75320;SDS011;63920;52.130;5.584;2022-12-18T09:53:26;18.73;;;9.88;;
75320;SDS011;63920;52.130;5.584;2022-12-18T09:55:56;17.52;;;9.93;;
75320;SDS011;63920;52.130;5.584;2022-12-18T09:58:34;16.40;;;10.20;;
75320;SDS011;63920;52.130;5.584;2022-12-18T10:01:14;16.30;;;10.48;;
75320;SDS011;63920;52.130;5.584;2022-12-18T10:03:43;19.13;;;11.07;;
75320;SDS011;63920;52.130;5.584;2022-12-18T10:06:11;18.35;;;10.63;;
75320;SDS011;63920;52.130;5.584;2022-12-18T10:08:48;23.13;;;11.32;;
75320;SDS011;63920;52.130;5.584;2022-12-18T10:19:44;16.65;;;9.65;;
75320;SDS011;63920;52.130;5.584;2022-12-18T10:27:45;16.67;;;10.15;;
75320;SDS011;63920;52.130;5.584;2022-12-18T10:30:15;18.65;;;11.27;;
75320;SDS011;63920;52.130;5.584;2022-12-18T10:32:42;21.17;;;10.10;;
75320;SDS011;63920;52.130;5.584;2022-12-18T10:35:11;17.67;;;9.20;;
75320;SDS011;63920;52.130;5.584;2022-12-18T10:38:29;15.90;;;10.27;;
75320;SDS011;63920;52.130;5.584;2022-12-18T10:40:51;16.83;;;9.65;;
75320;SDS011;63920;52.130;5.584;2022-12-18T10:43:36;17.08;;;9.57;;
75320;SDS011;63920;52.130;5.584;2022-12-18T10:48:33;18.95;;;9.38;;
75320;SDS011;63920;52.130;5.584;2022-12-18T10:51:04;17.58;;;10.43;;
75320;SDS011;63920;52.130;5.584;2022-12-18T10:53:32;14.68;;;9.60;;
75320;SDS011;63920;52.130;5.584;2022-12-18T10:55:59;15.95;;;10.48;;
75320;SDS011;63920;52.130;5.584;2022-12-18T10:58:28;16.88;;;9.57;;
75320;SDS011;63920;52.130;5.584;2022-12-18T11:03:35;14.25;;;9.50;;
75320;SDS011;63920;52.130;5.584;2022-12-18T11:06:12;15.02;;;9.63;;
75320;SDS011;63920;52.130;5.584;2022-12-18T11:08:38;19.90;;;9.57;;
75320;SDS011;63920;52.130;5.584;2022-12-18T11:11:07;16.00;;;10.10;;
75320;SDS011;63920;52.130;5.584;2022-12-18T11:14:01;16.90;;;10.38;;
75320;SDS011;63920;52.130;5.584;2022-12-18T11:17:05;15.13;;;9.38;;
75320;SDS011;63920;52.130;5.584;2022-12-18T11:19:37;17.40;;;10.10;;
75320;SDS011;63920;52.130;5.584;2022-12-18T11:22:24;14.65;;;9.90;;
75320;SDS011;63920;52.130;5.584;2022-12-18T11:24:58;16.02;;;9.40;;
75320;SDS011;63920;52.130;5.584;2022-12-18T11:27:26;16.40;;;9.00;;
75320;SDS011;63920;52.130;5.584;2022-12-18T11:30:06;17.15;;;9.15;;
75320;SDS011;63920;52.130;5.584;2022-12-18T11:32:50;14.20;;;9.35;;
75320;SDS011;63920;52.130;5.584;2022-12-18T11:35:57;15.35;;;9.82;;
75320;SDS011;63920;52.130;5.584;2022-12-18T11:40:53;16.05;;;10.38;;
75320;SDS011;63920;52.130;5.584;2022-12-18T11:43:31;17.17;;;10.57;;
75320;SDS011;63920;52.130;5.584;2022-12-18T11:46:27;14.65;;;9.63;;
75320;SDS011;63920;52.130;5.584;2022-12-18T11:49:17;18.10;;;10.15;;
75320;SDS011;63920;52.130;5.584;2022-12-18T11:51:49;17.48;;;11.00;;
75320;SDS011;63920;52.130;5.584;2022-12-18T11:54:21;14.07;;;9.15;;
75320;SDS011;63920;52.130;5.584;2022-12-18T11:56:58;15.75;;;9.40;;
75320;SDS011;63920;52.130;5.584;2022-12-18T12:00:07;17.23;;;10.52;;
75320;SDS011;63920;52.130;5.584;2022-12-18T12:02:42;17.02;;;10.57;;
75320;SDS011;63920;52.130;5.584;2022-12-18T12:05:35;17.10;;;10.18;;
75320;SDS011;63920;52.130;5.584;2022-12-18T12:13:21;18.30;;;9.85;;
75320;SDS011;63920;52.130;5.584;2022-12-18T12:26:14;16.42;;;10.55;;
75320;SDS011;63920;52.130;5.584;2022-12-18T12:29:00;17.00;;;10.85;;
75320;SDS011;63920;52.130;5.584;2022-12-18T12:34:23;19.17;;;10.88;;
75320;SDS011;63920;52.130;5.584;2022-12-18T12:37:15;16.05;;;10.18;;
75320;SDS011;63920;52.130;5.584;2022-12-18T12:39:54;18.67;;;11.73;;
75320;SDS011;63920;52.130;5.584;2022-12-18T12:42:34;16.75;;;10.75;;
75320;SDS011;63920;52.130;5.584;2022-12-18T12:45:26;15.43;;;9.55;;
75320;SDS011;63920;52.130;5.584;2022-12-18T12:47:55;16.52;;;10.55;;
75320;SDS011;63920;52.130;5.584;2022-12-18T12:50:23;16.70;;;10.70;;
75320;SDS011;63920;52.130;5.584;2022-12-18T12:52:51;18.65;;;11.50;;
75320;SDS011;63920;52.130;5.584;2022-12-18T12:55:23;14.80;;;10.20;;
75320;SDS011;63920;52.130;5.584;2022-12-18T13:00:24;18.33;;;10.80;;
75320;SDS011;63920;52.130;5.584;2022-12-18T13:08:27;17.45;;;10.45;;
75320;SDS011;63920;52.130;5.584;2022-12-18T13:10:57;15.63;;;10.18;;
75320;SDS011;63920;52.130;5.584;2022-12-18T13:13:55;16.40;;;10.32;;
75320;SDS011;63920;52.130;5.584;2022-12-18T13:16:22;21.73;;;11.02;;
75320;SDS011;63920;52.130;5.584;2022-12-18T13:18:53;16.85;;;11.48;;
75320;SDS011;63920;52.130;5.584;2022-12-18T13:21:26;18.55;;;11.57;;
75320;SDS011;63920;52.130;5.584;2022-12-18T13:23:54;17.80;;;11.10;;
75320;SDS011;63920;52.130;5.584;2022-12-18T13:28:52;18.50;;;10.38;;
75320;SDS011;63920;52.130;5.584;2022-12-18T13:36:43;18.40;;;11.32;;
75320;SDS011;63920;52.130;5.584;2022-12-18T13:39:11;16.70;;;11.40;;
75320;SDS011;63920;52.130;5.584;2022-12-18T13:41:43;17.65;;;10.70;;
75320;SDS011;63920;52.130;5.584;2022-12-18T13:46:43;17.33;;;10.85;;
75320;SDS011;63920;52.130;5.584;2022-12-18T13:51:42;18.77;;;11.63;;
75320;SDS011;63920;52.130;5.584;2022-12-18T13:54:28;17.15;;;11.05;;
75320;SDS011;63920;52.130;5.584;2022-12-18T13:57:12;17.65;;;10.93;;
75320;SDS011;63920;52.130;5.584;2022-12-18T14:00:17;18.90;;;11.52;;
75320;SDS011;63920;52.130;5.584;2022-12-18T14:02:53;23.35;;;11.07;;
75320;SDS011;63920;52.130;5.584;2022-12-18T14:05:26;16.20;;;10.75;;
75320;SDS011;63920;52.130;5.584;2022-12-18T14:08:03;20.42;;;11.52;;
75320;SDS011;63920;52.130;5.584;2022-12-18T14:10:33;28.92;;;14.02;;
75320;SDS011;63920;52.130;5.584;2022-12-18T14:13:01;17.95;;;12.02;;
75320;SDS011;63920;52.130;5.584;2022-12-18T14:20:43;20.10;;;11.00;;
75320;SDS011;63920;52.130;5.584;2022-12-18T14:26:00;21.08;;;11.20;;
75320;SDS011;63920;52.130;5.584;2022-12-18T14:28:28;21.55;;;11.73;;
75320;SDS011;63920;52.130;5.584;2022-12-18T14:30:54;24.58;;;11.90;;
75320;SDS011;63920;52.130;5.584;2022-12-18T14:33:22;19.15;;;11.80;;
75320;SDS011;63920;52.130;5.584;2022-12-18T14:43:40;21.30;;;11.55;;
75320;SDS011;63920;52.130;5.584;2022-12-18T14:48:55;18.80;;;10.98;;
75320;SDS011;63920;52.130;5.584;2022-12-18T14:51:22;17.05;;;11.65;;
75320;SDS011;63920;52.130;5.584;2022-12-18T14:53:53;20.42;;;11.00;;
75320;SDS011;63920;52.130;5.584;2022-12-18T14:56:29;18.75;;;11.20;;
75320;SDS011;63920;52.130;5.584;2022-12-18T14:59:05;21.55;;;12.65;;
75320;SDS011;63920;52.130;5.584;2022-12-18T15:02:01;22.75;;;12.57;;
75320;SDS011;63920;52.130;5.584;2022-12-18T15:04:34;23.38;;;11.88;;
75320;SDS011;63920;52.130;5.584;2022-12-18T15:09:42;17.10;;;11.10;;
75320;SDS011;63920;52.130;5.584;2022-12-18T15:20:27;18.38;;;11.30;;
75320;SDS011;63920;52.130;5.584;2022-12-18T15:22:56;22.58;;;12.85;;
75320;SDS011;63920;52.130;5.584;2022-12-18T15:27:58;21.65;;;12.27;;
75320;SDS011;63920;52.130;5.584;2022-12-18T15:30:24;19.65;;;11.45;;
75320;SDS011;63920;52.130;5.584;2022-12-18T15:32:51;21.08;;;12.55;;
75320;SDS011;63920;52.130;5.584;2022-12-18T15:35:36;22.65;;;12.48;;
75320;SDS011;63920;52.130;5.584;2022-12-18T15:38:02;21.10;;;12.43;;
75320;SDS011;63920;52.130;5.584;2022-12-18T15:40:27;22.35;;;12.70;;
75320;SDS011;63920;52.130;5.584;2022-12-18T15:42:53;21.88;;;13.02;;
75320;SDS011;63920;52.130;5.584;2022-12-18T15:45:38;22.45;;;13.30;;
75320;SDS011;63920;52.130;5.584;2022-12-18T15:48:17;21.75;;;13.25;;
75320;SDS011;63920;52.130;5.584;2022-12-18T15:50:45;26.20;;;14.15;;
75320;SDS011;63920;52.130;5.584;2022-12-18T15:53:11;24.05;;;12.77;;
75320;SDS011;63920;52.130;5.584;2022-12-18T15:55:37;24.95;;;13.70;;
75320;SDS011;63920;52.130;5.584;2022-12-18T15:58:21;21.50;;;12.95;;
75320;SDS011;63920;52.130;5.584;2022-12-18T16:00:47;22.92;;;13.77;;
75320;SDS011;63920;52.130;5.584;2022-12-18T16:03:12;26.40;;;15.07;;
75320;SDS011;63920;52.130;5.584;2022-12-18T16:05:38;25.15;;;13.90;;
75320;SDS011;63920;52.130;5.584;2022-12-18T16:08:04;24.27;;;13.05;;
75320;SDS011;63920;52.130;5.584;2022-12-18T16:10:29;26.45;;;14.63;;
75320;SDS011;63920;52.130;5.584;2022-12-18T16:12:55;27.38;;;14.73;;
75320;SDS011;63920;52.130;5.584;2022-12-18T16:15:21;28.58;;;15.10;;
75320;SDS011;63920;52.130;5.584;2022-12-18T16:17:46;26.38;;;14.95;;
75320;SDS011;63920;52.130;5.584;2022-12-18T16:20:14;28.50;;;14.52;;
75320;SDS011;63920;52.130;5.584;2022-12-18T16:22:44;28.00;;;15.32;;
75320;SDS011;63920;52.130;5.584;2022-12-18T16:25:24;25.48;;;14.82;;
75320;SDS011;63920;52.130;5.584;2022-12-18T16:27:53;23.50;;;14.32;;
75320;SDS011;63920;52.130;5.584;2022-12-18T16:30:21;22.50;;;14.15;;
75320;SDS011;63920;52.130;5.584;2022-12-18T16:32:48;26.17;;;15.65;;
75320;SDS011;63920;52.130;5.584;2022-12-18T16:35:15;29.35;;;15.80;;
75320;SDS011;63920;52.130;5.584;2022-12-18T16:37:42;28.60;;;15.45;;
75320;SDS011;63920;52.130;5.584;2022-12-18T16:40:09;26.23;;;15.98;;
75320;SDS011;63920;52.130;5.584;2022-12-18T16:42:36;28.33;;;14.63;;
75320;SDS011;63920;52.130;5.584;2022-12-18T16:45:06;30.08;;;16.67;;
75320;SDS011;63920;52.130;5.584;2022-12-18T16:47:34;26.20;;;15.13;;